createdAt,value
2017-12-10T00:05:27.352Z,98508.09
2017-12-10T00:11:32.141Z,98490.34
2017-12-10T00:17:35.771Z,98482.35
2017-12-10T00:23:39.504Z,98490.34
2017-12-10T00:29:43.219Z,98469.44
2017-12-10T00:35:46.920Z,98457.00
2017-12-10T00:41:50.576Z,98458.56
2017-12-10T00:47:54.288Z,98442.77
2017-12-10T00:53:58.731Z,98435.06
2017-12-10T01:00:02.372Z,98432.50
2017-12-10T01:06:06.402Z,98417.56
2017-12-10T01:12:10.532Z,98414.16
2017-12-10T01:18:14.934Z,98396.47
2017-12-10T01:24:19.419Z,98385.91
2017-12-10T01:30:25.649Z,98359.12
2017-12-10T01:36:29.383Z,98346.33
2017-12-10T01:42:33.207Z,98342.19
2017-12-10T01:48:36.838Z,98322.66
2017-12-10T01:54:40.594Z,98317.59
2017-12-10T02:00:44.524Z,98302.34
2017-12-10T02:06:48.157Z,98290.40
2017-12-10T02:12:51.779Z,98284.97
2017-12-10T02:18:56.125Z,98278.30
2017-12-10T02:25:00.165Z,98273.61
2017-12-10T02:31:04.104Z,98259.54
2017-12-10T02:37:07.768Z,98244.21
2017-12-10T02:43:11.439Z,98240.08
2017-12-10T02:49:15.099Z,98225.50
2017-12-10T02:55:18.732Z,98215.87
2017-12-10T03:01:24.511Z,98209.50
2017-12-10T03:07:28.509Z,98196.73
2017-12-10T03:13:32.378Z,98184.77
2017-12-10T03:19:36.247Z,98172.58
2017-12-10T03:25:41.095Z,98151.66
2017-12-10T03:31:44.928Z,98155.03
2017-12-10T03:37:49.498Z,98150.49
2017-12-10T03:43:54.390Z,98144.57
2017-12-10T03:49:58.831Z,98133.02
2017-12-10T03:56:03.971Z,98119.83
2017-12-10T04:02:08.146Z,98106.37
2017-12-10T04:08:12.178Z,98094.41
2017-12-10T04:14:16.570Z,98083.20
2017-12-10T04:20:21.233Z,98074.89
2017-12-10T04:26:26.955Z,98058.83
2017-12-10T04:32:31.119Z,98040.83
2017-12-10T04:38:35.921Z,98033.00
2017-12-10T04:44:39.847Z,98018.27
2017-12-10T04:50:43.634Z,98024.95
2017-12-10T04:56:47.301Z,98003.45
2017-12-10T05:02:52.192Z,97977.16
2017-12-10T05:08:58.118Z,97981.94
2017-12-10T05:15:02.595Z,97968.66
2017-12-10T05:21:06.483Z,97938.64
2017-12-10T05:27:11.079Z,97934.95
2017-12-10T05:33:15.551Z,97908.08
2017-12-10T05:39:19.482Z,97898.76
2017-12-10T05:45:26.208Z,97877.06
2017-12-10T05:51:30.211Z,97867.44
2017-12-10T05:57:33.845Z,97844.89
2017-12-10T06:03:38.186Z,97833.98
2017-12-10T06:09:41.988Z,97812.18
2017-12-10T06:15:46.022Z,97805.34
2017-12-10T06:21:51.562Z,97777.35
2017-12-10T06:27:56.293Z,97754.87
2017-12-10T06:34:00.044Z,97742.84
2017-12-10T06:40:03.807Z,97722.34
2017-12-10T06:46:08.258Z,97700.36
2017-12-10T06:52:12.559Z,97681.39
2017-12-10T06:58:17.373Z,97667.67
2017-12-10T07:04:21.303Z,97657.75
2017-12-10T07:10:25.787Z,97631.83
2017-12-10T07:16:31.429Z,97613.46
2017-12-10T07:22:35.678Z,97595.62
2017-12-10T07:28:39.701Z,97575.81
2017-12-10T07:34:44.172Z,97578.01
2017-12-10T07:40:48.048Z,97567.82
2017-12-10T07:46:52.483Z,97564.66
2017-12-10T07:52:58.804Z,97552.92
2017-12-10T07:59:02.585Z,97563.26
2017-12-10T08:05:06.280Z,97536.47
2017-12-10T08:11:11.202Z,97514.52
2017-12-10T08:17:14.822Z,97511.67
2017-12-10T08:23:18.481Z,97495.27
2017-12-10T08:29:23.275Z,97470.66
2017-12-10T08:35:37.811Z,97455.08
2017-12-10T08:41:41.875Z,97420.05
2017-12-10T08:47:46.666Z,97404.63
2017-12-10T08:53:50.420Z,97385.66
2017-12-10T08:59:54.657Z,97354.56
2017-12-10T09:05:59.059Z,97337.48
2017-12-10T09:12:03.641Z,97323.21
2017-12-10T09:18:08.444Z,97311.45
2017-12-10T09:24:12.859Z,97296.33
2017-12-10T09:30:17.466Z,97281.67
2017-12-10T09:36:24.501Z,97269.67
2017-12-10T09:42:28.351Z,97238.48
2017-12-10T09:48:33.410Z,97216.97
2017-12-10T09:54:37.109Z,97181.02
2017-12-10T10:00:41.570Z,97162.05
2017-12-10T10:06:45.995Z,97122.88
2017-12-10T10:12:50.027Z,97098.77
2017-12-10T10:18:54.804Z,97077.06
2017-12-10T10:24:58.438Z,97051.85
2017-12-10T10:31:03.074Z,97038.47
2017-12-10T10:37:07.039Z,97013.13
2017-12-10T10:43:10.766Z,96988.94
2017-12-10T10:49:15.874Z,96963.66
2017-12-10T10:55:19.766Z,96936.44
2017-12-10T11:01:24.074Z,96895.41
2017-12-10T11:07:29.074Z,96863.68
2017-12-10T11:13:32.792Z,96838.13
2017-12-10T11:19:36.440Z,96817.11
2017-12-10T11:25:40.355Z,96807.77
2017-12-10T11:31:44.390Z,96785.73
2017-12-10T11:37:48.035Z,96741.90
2017-12-10T11:43:52.696Z,96736.02
2017-12-10T11:49:57.843Z,96698.69
2017-12-10T11:56:02.804Z,96663.17
2017-12-10T12:02:06.855Z,96643.28
2017-12-10T12:08:10.710Z,96604.05
2017-12-10T12:14:14.521Z,96565.63
2017-12-10T12:20:18.202Z,96528.20
2017-12-10T12:26:21.928Z,96487.99
2017-12-10T12:32:25.743Z,96447.72
2017-12-10T12:38:29.825Z,96436.74
2017-12-10T12:44:33.488Z,96418.33
2017-12-10T12:50:37.073Z,96409.11
2017-12-10T12:56:41.001Z,96364.63
2017-12-10T13:02:44.641Z,96366.80
2017-12-10T13:08:49.307Z,96370.34
2017-12-10T13:14:53.372Z,96356.44
2017-12-10T13:20:57.085Z,96324.27
2017-12-10T13:27:01.089Z,96319.22
2017-12-10T13:33:04.864Z,96304.34
2017-12-10T13:39:08.637Z,96292.92
2017-12-10T13:45:13.008Z,96308.13
2017-12-10T13:51:17.278Z,96289.91
2017-12-10T13:57:21.746Z,96266.45
2017-12-10T14:03:25.990Z,96244.80
2017-12-10T14:09:29.772Z,96188.48
2017-12-10T14:15:34.277Z,96198.78
2017-12-10T14:21:37.967Z,96176.34
2017-12-10T14:27:41.584Z,96169.88
2017-12-10T14:33:45.993Z,96146.39
2017-12-10T14:39:49.656Z,96130.35
2017-12-10T14:45:53.617Z,96128.09
2017-12-10T14:51:57.256Z,96115.48
2017-12-10T14:58:00.889Z,96102.12
2017-12-10T15:04:05.134Z,96088.28
2017-12-10T15:10:08.779Z,96069.03
2017-12-10T15:16:12.584Z,96044.72
2017-12-10T15:22:17.001Z,96017.34
2017-12-10T15:28:20.722Z,96007.05
2017-12-10T15:34:24.786Z,95982.98
2017-12-10T15:40:29.207Z,95970.88
2017-12-10T15:46:33.115Z,95966.30
2017-12-10T15:52:36.784Z,95962.98
2017-12-10T15:58:40.437Z,95944.98
2017-12-10T16:04:44.826Z,95930.66
2017-12-10T16:10:49.574Z,95906.13
2017-12-10T16:16:53.666Z,95889.97
2017-12-10T16:22:58.094Z,95886.50
2017-12-10T16:29:01.694Z,95865.81
2017-12-10T16:35:06.428Z,95838.62
2017-12-10T16:41:10.089Z,95828.20
2017-12-10T16:47:13.714Z,95816.27
2017-12-10T16:53:17.406Z,95810.78
2017-12-10T16:59:22.980Z,95799.09
2017-12-10T17:05:27.025Z,95808.48
2017-12-10T17:11:31.418Z,95799.69
2017-12-10T17:17:35.784Z,95789.40
2017-12-10T17:23:39.420Z,95783.92
2017-12-10T17:29:43.189Z,95778.84
2017-12-10T17:35:46.820Z,95764.04
2017-12-10T17:41:50.911Z,95767.14
2017-12-10T17:47:54.926Z,95765.63
2017-12-10T17:53:58.758Z,95759.16
2017-12-10T18:00:03.207Z,95753.50
2017-12-10T18:06:07.939Z,95750.53
2017-12-10T18:12:11.597Z,95743.55
2017-12-10T18:18:15.547Z,95754.17
2017-12-10T18:24:19.933Z,95756.83
2017-12-10T18:30:24.479Z,95737.30
2017-12-10T18:36:28.133Z,95762.78
2017-12-10T18:42:31.830Z,95755.93
2017-12-10T18:48:35.488Z,95757.23
2017-12-10T18:54:39.851Z,95755.02
2017-12-10T19:00:44.260Z,95750.59
2017-12-10T19:06:48.190Z,95753.11
2017-12-10T19:12:53.424Z,95751.09
2017-12-10T19:18:59.076Z,95745.45
2017-12-10T19:25:02.741Z,95745.64
2017-12-10T19:31:06.345Z,95740.36
2017-12-10T19:37:10.037Z,95739.41
2017-12-10T19:43:13.807Z,95754.23
2017-12-10T19:49:18.213Z,95756.31
2017-12-10T19:55:22.639Z,95747.92
2017-12-10T20:01:26.477Z,95746.72
2017-12-10T20:07:30.275Z,95739.49
2017-12-10T20:13:34.756Z,95708.60
2017-12-10T20:19:39.186Z,95723.11
2017-12-10T20:25:42.819Z,95722.38
2017-12-10T20:31:46.506Z,95699.73
2017-12-10T20:37:50.171Z,95710.30
2017-12-10T20:43:55.107Z,95719.47
2017-12-10T20:49:58.987Z,95723.20
2017-12-10T20:56:02.822Z,95701.87
2017-12-10T21:02:07.284Z,95706.89
2017-12-10T21:08:10.947Z,95701.86
2017-12-10T21:14:15.962Z,95680.38
2017-12-10T21:20:21.680Z,95696.28
2017-12-10T21:26:26.649Z,95690.52
2017-12-10T21:32:31.056Z,95697.01
2017-12-10T21:38:34.999Z,95684.03
2017-12-10T21:44:38.869Z,95697.85
2017-12-10T21:50:42.464Z,95707.14
2017-12-10T21:56:46.216Z,95681.20
2017-12-10T22:02:50.304Z,95684.65
2017-12-10T22:08:54.984Z,95708.05
2017-12-10T22:14:58.953Z,95696.89
2017-12-10T22:21:03.123Z,95657.41
2017-12-10T22:27:06.738Z,95627.31
2017-12-10T22:33:10.626Z,95614.66
2017-12-10T22:39:14.239Z,95629.19
2017-12-10T22:45:17.955Z,95626.43
2017-12-10T22:51:22.172Z,95633.20
2017-12-10T22:57:26.069Z,95620.38
2017-12-10T23:03:30.760Z,95627.41
2017-12-10T23:09:34.522Z,95629.91
2017-12-10T23:15:38.274Z,95636.15
2017-12-10T23:21:42.426Z,95639.23
2017-12-10T23:27:46.448Z,95648.89
2017-12-10T23:33:51.824Z,95666.30
2017-12-10T23:39:56.407Z,95677.15
2017-12-10T23:46:00.498Z,95715.25
2017-12-10T23:52:04.249Z,95723.41
2017-12-10T23:58:08.772Z,95771.58
